Airfield :







YOU CAN JOIN US ON...

 
LOGIN :

Register | Disclaimer

   EN    FR    IT 

 









Legend :    VFR   Marginal VFR   IFR   Intensive IFR   Very Intensive IFR
Visi :
Ceiling :
>= 8 km
>= 3000ft
5 to 8 km
1000 to 3000 ft
1500m to 5 km
500 to 1000 ft
800 to 1500m
200 to 500 ft
< 800m
< 200 ft
Symbols :   Thunderstorms  Fog  Heavy snow  Heavy precipitations  Wind > 20 kt






- Airport Elevation : 29 ft
- IATA code : PSE


TJPS - Mercedita

METAR N/A
TAF TJPS
Valid from the 12 at 06:00 until the 13 at 06:00 UTC


120520Z 1206/1306 09010G20KT P6SM VCSH FEW025 FEW040
FM120900 07004KT P6SM VCSH SCT025 BKN050
FM121400 14012G20KT P6SM VCTS SCT025 BKN050CB
FM121900 11011KT P6SM VCSH FEW025 SCT030 AMD NOT SKED TIL 120300
TJZS FIR / North America



MET'MAP, your aeronautical weather chart ! - Copyright ORBIFLY December 2007 - Disclaimer

ORBIFLY MET'MAP TEAM :

Programming & Development : Alexandra Zaïnal
Concept & original design : Baudouin d'Aumeries
Assistance for programming : Marc-Olivier Méhu
Technical & hardware support : Manuel Goepfert

Contact : metmap@orbifly.com




SOURCES & CREDITS :

   NOAA